Thunder radar more information blitzortung!


Radar de pluja more information rain snow radar


Visita la nostra xarxa de llocs de meteo:

Template documentation
and downloads

And another site



No particular awareness of the weather is required.    There are no Weather-warnings

Pagina Historial Weather Underground text

Diari Resum Novembre 1, 2017 Unitats:  Imperial    Mètric   Tant
« Previous Dia
SegĂźent Dia »
Diari Setmana Mensual Anual Personalitzada
  Maxima: Minima: Media:
Temperatura: TemperatureC °F 10.5 °F 15.5 °F
Punt de rosada: DewpointC °F 6.6 °F 11.1 °F
Humitat: Humidity % 61 % 75 %
Wind Speed: WindSpeedKMH mph 0.0 mph 3.2 mph
RĂ fegues de vent: WindSpeedGustKMH mph - -
Vent:- - South
Pression baro: PressurehPa in 1020.9 in -
Precipitacions: 0.0 in    
Historical Graphs
 
 
Dades de taula per Novembre 1, 2017
Temps Temperatura Punt de rosada Pression baro Vent Wind Speed RĂ fegues de vent Humitat Rainfall Rate (Hourly)
TemperatureC °F DewpointC °F PressurehPa in Calm     Humidity % HourlyPrecipMM in
00:03 10.5 °F 6.6 °F 1023.9 in SW 3.7 mph 3.7 mph 77 % 0.0 in
03:25 12.7 °F 8.9 °F 1024.9 in Calm   1.6 mph 78 % 0.0 in
03:35 12.7 °F 8.6 °F 1024.9 in East 3.2 mph 3.2 mph 76 % 0.0 in
03:45 12.9 °F 8.9 °F 1024.9 in SE 1.6 mph 3.2 mph 77 % 0.0 in
03:55 13.1 °F 8.9 °F 1024.9 in ESE 1.6 mph 3.2 mph 76 % 0.0 in
10:06 12.9 °F 8.6 °F 1024.9 in SE 3.7 mph 3.7 mph 75 % 0.0 in
10:07 12.9 °F 8.6 °F 1024.9 in SE 3.7 mph 3.7 mph 75 % 0.0 in
10:12 12.8 °F 8.5 °F 1024.9 in ESE 3.7 mph 3.7 mph 75 % 0.0 in
10:17 13.0 °F 8.7 °F 1024.9 in ESE 3.7 mph 3.7 mph 75 % 0.0 in
10:22 13.3 °F 9.2 °F 1024.9 in ENE 3.7 mph 3.7 mph 76 % 0.0 in
10:27 13.3 °F 8.9 °F 1024.9 in NNE 3.7 mph 3.7 mph 75 % 0.0 in
10:32 13.4 °F 9.1 °F 1024.9 in NNE 3.7 mph 3.7 mph 75 % 0.0 in
10:37 13.5 °F 8.9 °F 1024.9 in ENE 5.6 mph 5.6 mph 74 % 0.0 in
10:42 14.0 °F 9.4 °F 1024.9 in NNW 5.6 mph 5.6 mph 74 % 0.0 in
10:47 14.4 °F 9.8 °F 1024.9 in ENE 1.9 mph 1.9 mph 74 % 0.0 in
10:52 14.6 °F 10.0 °F 1024.9 in NW 3.7 mph 3.7 mph 74 % 0.0 in
10:57 14.3 °F 9.3 °F 1024.9 in NNE 3.9 mph 4.2 mph 72 % 0.0 in
11:02 13.6 °F 8.7 °F 1024.9 in ENE 7.4 mph 7.4 mph 72 % 0.0 in
11:07 13.8 °F 9.1 °F 1024.9 in NNE 1.9 mph 1.9 mph 73 % 0.0 in
11:12 13.9 °F 8.9 °F 1024.9 in NNE 4.2 mph 5.0 mph 72 % 0.0 in
11:17 14.0 °F 9.1 °F 1024.9 in ENE 3.9 mph 3.9 mph 72 % 0.0 in
11:22 14.0 °F 9.1 °F 1023.9 in WSW 3.7 mph 3.7 mph 72 % 0.0 in
11:27 14.4 °F 9.4 °F 1023.9 in ENE 1.9 mph   72 % 0.0 in
11:32 14.5 °F 9.5 °F 1023.9 in ESE 4.2 mph 4.2 mph 72 % 0.0 in
11:37 14.7 °F 9.7 °F 1023.9 in NNE 3.7 mph 3.7 mph 72 % 0.0 in
11:42 15.0 °F 9.8 °F 1023.9 in WSW 5.6 mph 5.6 mph 71 % 0.0 in
11:47 15.5 °F 10.1 °F 1023.9 in ESE 5.6 mph 5.6 mph 70 % 0.0 in
11:52 15.7 °F 10.2 °F 1023.9 in ENE 2.3 mph 2.3 mph 70 % 0.0 in
11:57 15.5 °F 9.8 °F 1023.9 in SE 5.6 mph 5.6 mph 69 % 0.0 in
12:02 16.0 °F 10.6 °F 1023.9 in ESE 3.2 mph 3.2 mph 70 % 0.0 in
12:07 16.4 °F 10.9 °F 1023.9 in ENE 3.7 mph 3.7 mph 70 % 0.0 in
12:12 16.5 °F 10.8 °F 1023.9 in ENE 3.9 mph 3.9 mph 69 % 0.0 in
12:17 16.6 °F 10.7 °F 1023.9 in ESE 3.7 mph 3.7 mph 68 % 0.0 in
12:22 16.8 °F 10.8 °F 1023.9 in ENE 5.6 mph 5.6 mph 68 % 0.0 in
12:27 16.7 °F 10.8 °F 1023.9 in SE 5.6 mph 5.6 mph 68 % 0.0 in
12:32 17.1 °F 11.2 °F 1023.9 in ESE 3.7 mph 3.7 mph 68 % 0.0 in
12:37 17.5 °F 11.5 °F 1023.9 in SSE 5.6 mph 5.6 mph 68 % 0.0 in
12:42 17.6 °F 11.4 °F 1023.9 in SE 5.6 mph 5.6 mph 67 % 0.0 in
12:47 17.6 °F 11.6 °F 1023.9 in WSW 3.7 mph   68 % 0.0 in
12:52 17.7 °F 11.5 °F 1023.9 in ENE 4.7 mph 4.7 mph 67 % 0.0 in
12:57 17.7 °F 11.5 °F 1023.9 in ENE 5.8 mph 5.8 mph 67 % 0.0 in
13:02 18.1 °F 11.9 °F 1023.9 in SSE 4.2 mph 4.2 mph 67 % 0.0 in
13:07 17.9 °F 11.7 °F 1022.9 in East 5.6 mph 5.6 mph 67 % 0.0 in
13:12 18.2 °F 11.9 °F 1022.9 in SW 3.7 mph 3.7 mph 67 % 0.0 in
13:17 18.4 °F 12.2 °F 1022.9 in SSE 5.6 mph   67 % 0.0 in
13:22 18.4 °F 12.2 °F 1022.9 in East 1.9 mph 1.9 mph 67 % 0.0 in
13:27 18.3 °F 11.8 °F 1022.9 in SSE 9.3 mph 9.3 mph 66 % 0.0 in
13:32 18.6 °F 12.3 °F 1022.9 in South 6.9 mph 6.9 mph 67 % 0.0 in
13:37 19.1 °F 12.6 °F 1022.9 in SW 5.6 mph 5.6 mph 66 % 0.0 in
13:42 19.4 °F 12.7 °F 1022.9 in SSW 7.4 mph 7.4 mph 65 % 0.0 in
13:47 19.1 °F 12.4 °F 1022.9 in ESE 3.7 mph 3.7 mph 65 % 0.0 in
13:52 19.0 °F 12.3 °F 1022.9 in SSE 3.7 mph 3.7 mph 65 % 0.0 in
13:57 19.2 °F 12.4 °F 1022.9 in South 5.6 mph 5.6 mph 65 % 0.0 in
14:02 19.5 °F 12.7 °F 1022.9 in West 4.7 mph 4.7 mph 65 % 0.0 in
14:07 19.6 °F 12.6 °F 1021.9 in SW 7.4 mph 7.4 mph 64 % 0.0 in
14:12 19.4 °F 12.4 °F 1021.9 in SW 9.3 mph 9.3 mph 64 % 0.0 in
14:17 19.4 °F 12.4 °F 1021.9 in WSW 3.9 mph 3.9 mph 64 % 0.0 in
14:22 19.7 °F 12.4 °F 1020.9 in SE 9.3 mph 9.3 mph 63 % 0.0 in
14:27 20.0 °F 12.7 °F 1020.9 in WSW 3.9 mph 3.9 mph 63 % 0.0 in
14:32 20.2 °F 12.7 °F 1020.9 in SSW 3.2 mph 3.2 mph 62 % 0.0 in
14:37 20.6 °F 13.3 °F 1021.9 in SW 7.4 mph 7.4 mph 63 % 0.0 in
14:42 20.4 °F 12.9 °F 1021.9 in SW 7.4 mph 7.4 mph 62 % 0.0 in
14:47 20.0 °F 12.2 °F 1021.9 in South 1.9 mph 1.9 mph 61 % 0.0 in
14:52 19.9 °F 12.7 °F 1021.9 in SW 5.6 mph 5.6 mph 63 % 0.0 in
14:57 19.8 °F 12.3 °F 1021.9 in SW 5.8 mph 5.8 mph 62 % 0.0 in
15:02 19.5 °F 12.0 °F 1021.9 in SW 3.7 mph 3.9 mph 62 % 0.0 in
15:07 19.5 °F 12.0 °F 1021.9 in SW 5.0 mph 5.0 mph 62 % 0.0 in
15:12 19.9 °F 12.4 °F 1021.9 in SW 5.6 mph 5.6 mph 62 % 0.0 in
15:17 20.3 °F 12.6 °F 1021.9 in SW 16.9 mph 16.9 mph 61 % 0.0 in
15:22 20.1 °F 12.3 °F 1021.9 in SW 11.1 mph 11.1 mph 61 % 0.0 in
15:27 20.2 °F 12.4 °F 1021.9 in SW 11.1 mph 11.1 mph 61 % 0.0 in
15:28 20.2 °F 12.4 °F 1021.9 in WNW 11.1 mph 11.1 mph 61 % 0.0 in
15:33 19.6 °F 12.1 °F 1021.9 in SW 9.3 mph 9.3 mph 62 % 0.0 in
15:38 19.6 °F 12.1 °F 1021.9 in SSW 3.7 mph   62 % 0.0 in
15:43 20.0 °F 12.2 °F 1021.9 in SW 7.4 mph 7.4 mph 61 % 0.0 in
15:48 20.0 °F 12.2 °F 1021.9 in SW 11.1 mph 11.1 mph 61 % 0.0 in
15:53 19.7 °F 12.2 °F 1021.9 in SSW 13.0 mph 13.0 mph 62 % 0.0 in
15:58 19.5 °F 12.0 °F 1021.9 in SW 7.4 mph 7.4 mph 62 % 0.0 in
16:03 19.3 °F 11.8 °F 1021.9 in SW 9.3 mph 9.3 mph 62 % 0.0 in
16:08 19.3 °F 12.1 °F 1021.9 in South 7.4 mph 7.4 mph 63 % 0.0 in
16:13 19.1 °F 11.9 °F 1021.9 in SW 9.3 mph 9.3 mph 63 % 0.0 in
16:18 19.0 °F 11.8 °F 1021.9 in South 7.4 mph 7.4 mph 63 % 0.0 in
16:23 19.0 °F 11.8 °F 1021.9 in SSW 9.3 mph 9.3 mph 63 % 0.0 in
16:28 18.9 °F 12.2 °F 1021.9 in SW 7.4 mph 7.4 mph 65 % 0.0 in
16:33 18.8 °F 12.1 °F 1021.9 in SW 9.3 mph 9.3 mph 65 % 0.0 in
16:38 18.4 °F 11.7 °F 1021.9 in WSW 11.1 mph 11.1 mph 65 % 0.0 in
16:43 18.3 °F 11.8 °F 1021.9 in South 5.6 mph 5.8 mph 66 % 0.0 in
16:48 18.2 °F 11.7 °F 1021.9 in SW 14.8 mph 14.8 mph 66 % 0.0 in
16:53 18.1 °F 11.7 °F 1021.9 in WSW 7.4 mph 7.4 mph 66 % 0.0 in
16:58 17.9 °F 11.7 °F 1021.9 in SW 9.3 mph 9.3 mph 67 % 0.0 in
17:03 17.9 °F 11.7 °F 1021.9 in WSW 9.3 mph 9.3 mph 67 % 0.0 in
17:08 17.8 °F 11.6 °F 1021.9 in SSW 5.3 mph 5.3 mph 67 % 0.0 in
17:13 17.6 °F 11.6 °F 1021.9 in SW 7.4 mph 7.4 mph 68 % 0.0 in
17:18 17.4 °F 11.4 °F 1021.9 in SSW 9.3 mph 9.3 mph 68 % 0.0 in
17:23 17.3 °F 11.3 °F 1021.9 in SW 7.4 mph 7.4 mph 68 % 0.0 in
17:28 17.1 °F 11.4 °F 1021.9 in SW 7.4 mph 7.4 mph 69 % 0.0 in
17:33 17.0 °F 11.5 °F 1021.9 in SW 7.4 mph 7.4 mph 70 % 0.0 in
17:38 16.8 °F 11.5 °F 1021.9 in WSW 5.6 mph 5.6 mph 71 % 0.0 in
17:43 16.7 °F 11.6 °F 1021.9 in WSW 3.7 mph 3.7 mph 72 % 0.0 in
17:48 16.6 °F 11.6 °F 1021.9 in SW 7.4 mph 7.4 mph 72 % 0.0 in
17:53 16.5 °F 11.7 °F 1022.9 in SW 3.7 mph 3.7 mph 73 % 0.0 in
17:58 16.4 °F 11.6 °F 1022.9 in SW 3.9 mph 3.9 mph 73 % 0.0 in
18:03 16.3 °F 11.7 °F 1022.9 in WSW 3.7 mph 3.7 mph 74 % 0.0 in
18:08 16.2 °F 11.6 °F 1020.9 in WSW 3.7 mph 3.7 mph 74 % 0.0 in
18:13 16.1 °F 11.4 °F 1020.9 in WSW 3.7 mph 3.7 mph 74 % 0.0 in
18:15 13.4 °F 10.9 °F 1022.9 in Calm     85 % 0.0 in
18:18 16.0 °F 11.6 °F 1020.9 in WSW 2.3 mph 2.3 mph 75 % 0.0 in
18:23 16.0 °F 11.6 °F 1021.9 in SW 1.9 mph   75 % 0.0 in
18:25 13.4 °F 10.9 °F 1021.9 in Calm   1.6 mph 85 % 0.0 in
18:28 15.9 °F 11.7 °F 1021.9 in SW 1.9 mph   76 % 0.0 in
18:33 15.8 °F 11.6 °F 1021.9 in WSW 1.9 mph   76 % 0.0 in
18:35 13.5 °F 11.0 °F 1021.9 in Calm     85 % 0.0 in
18:38 15.7 °F 11.5 °F 1021.9 in Calm     76 % 0.0 in
18:43 15.6 °F 11.4 °F 1021.9 in Calm     76 % 0.0 in
18:45 13.3 °F 10.8 °F 1021.9 in Calm   3.2 mph 85 % 0.0 in
18:48 15.6 °F 11.6 °F 1021.9 in WSW 2.6 mph 2.6 mph 77 % 0.0 in
18:53 15.6 °F 11.6 °F 1021.9 in West 2.6 mph 2.6 mph 77 % 0.0 in
18:55 13.2 °F 10.7 °F 1021.9 in Calm   3.2 mph 85 % 0.0 in
18:58 15.6 °F 11.6 °F 1021.9 in West 3.7 mph 3.7 mph 77 % 0.0 in
19:03 15.5 °F 11.5 °F 1021.9 in WSW 1.9 mph 1.9 mph 77 % 0.0 in
19:05 13.2 °F 10.9 °F 1021.9 in Calm   3.2 mph 86 % 0.0 in
19:08 15.5 °F 11.7 °F 1021.9 in Calm     78 % 0.0 in
19:13 15.4 °F 11.6 °F 1021.9 in Calm     78 % 0.0 in
19:15 13.2 °F 10.9 °F 1020.9 in Calm     86 % 0.0 in
19:18 15.2 °F 11.4 °F 1021.9 in Calm     78 % 0.0 in
19:23 15.1 °F 11.3 °F 1021.9 in Calm     78 % 0.0 in
19:25 13.1 °F 10.8 °F 1021.9 in NE 1.6 mph 3.2 mph 86 % 0.0 in
19:28 15.1 °F 11.5 °F 1021.9 in Calm     79 % 0.0 in
19:33 15.1 °F 11.5 °F 1021.9 in Calm     79 % 0.0 in
19:35 13.1 °F 10.8 °F 1021.9 in Calm   3.2 mph 86 % 0.0 in
19:38 15.0 °F 11.4 °F 1021.9 in Calm     79 % 0.0 in
19:43 14.9 °F 11.3 °F 1021.9 in Calm     79 % 0.0 in
19:45 13.0 °F 10.9 °F 1020.9 in Calm     87 % 0.0 in
19:48 14.9 °F 11.3 °F 1021.9 in West 1.4 mph   79 % 0.0 in
19:53 14.9 °F 11.3 °F 1021.9 in West 2.3 mph 2.3 mph 79 % 0.0 in
19:55 13.0 °F 10.9 °F 1021.9 in Calm   3.2 mph 87 % 0.0 in
19:58 14.9 °F 11.3 °F 1021.9 in Calm     79 % 0.0 in
20:03 14.8 °F 11.4 °F 1021.9 in Calm     80 % 0.0 in
20:05 13.0 °F 10.9 °F 1021.9 in Calm     87 % 0.0 in
20:08 14.9 °F 11.5 °F 1021.9 in Calm     80 % 0.0 in
20:13 14.9 °F 11.5 °F 1021.9 in Calm     80 % 0.0 in
20:15 13.1 °F 11.0 °F 1021.9 in Calm     87 % 0.0 in
20:18 14.9 °F 11.5 °F 1021.9 in Calm     80 % 0.0 in
20:23 14.9 °F 11.5 °F 1021.9 in Calm     80 % 0.0 in
20:25 13.1 °F 11.0 °F 1021.9 in Calm   3.2 mph 87 % 0.0 in
20:28 14.8 °F 11.4 °F 1021.9 in Calm     80 % 0.0 in
20:33 14.6 °F 11.2 °F 1021.9 in West 1.9 mph 1.9 mph 80 % 0.0 in
20:35 13.1 °F 11.0 °F 1021.9 in SW 1.6 mph 3.2 mph 87 % 0.0 in
20:38 14.5 °F 11.1 °F 1021.9 in Calm     80 % 0.0 in
20:43 14.5 °F 11.1 °F 1021.9 in Calm     80 % 0.0 in
20:45 13.1 °F 11.0 °F 1020.9 in Calm     87 % 0.0 in
20:48 14.4 °F 11.0 °F 1021.9 in Calm     80 % 0.0 in
20:53 14.3 °F 10.9 °F 1021.9 in Calm     80 % 0.0 in
20:55 13.0 °F 10.9 °F 1021.9 in Calm   3.2 mph 87 % 0.0 in
20:58 14.3 °F 11.1 °F 1021.9 in Calm     81 % 0.0 in
21:03 14.4 °F 11.0 °F 1021.9 in West 1.9 mph 1.9 mph 80 % 0.0 in
21:05 12.9 °F 10.9 °F 1021.9 in Calm     88 % 0.0 in
21:08 14.4 °F 11.2 °F 1021.9 in Calm     81 % 0.0 in
21:13 14.3 °F 11.1 °F 1021.9 in Calm     81 % 0.0 in
21:15 12.8 °F 10.8 °F 1021.9 in Calm     88 % 0.0 in
21:18 14.3 °F 11.1 °F 1021.9 in Calm     81 % 0.0 in
21:23 14.2 °F 11.2 °F 1021.9 in Calm     82 % 0.0 in
21:25 12.7 °F 10.8 °F 1021.9 in Calm   1.6 mph 88 % 0.0 in
21:28 14.1 °F 11.1 °F 1021.9 in Calm     82 % 0.0 in
21:33 14.0 °F 11.0 °F 1021.9 in Calm     82 % 0.0 in
21:35 12.7 °F 10.8 °F 1021.9 in Calm   1.6 mph 88 % 0.0 in
21:38 14.0 °F 11.0 °F 1022.9 in Calm     82 % 0.0 in
21:43 14.0 °F 11.0 °F 1022.9 in Calm     82 % 0.0 in
21:45 12.6 °F 10.7 °F 1021.9 in Calm     88 % 0.0 in
21:48 13.9 °F 10.9 °F 1022.9 in Calm     82 % 0.0 in
21:53 14.0 °F 11.0 °F 1022.9 in West 1.9 mph 1.9 mph 82 % 0.0 in
21:55 12.6 °F 10.7 °F 1021.9 in West 3.2 mph 3.2 mph 88 % 0.0 in
21:58 14.0 °F 11.2 °F 1022.9 in Calm     83 % 0.0 in
22:03 13.9 °F 11.1 °F 1022.9 in Calm     83 % 0.0 in
22:05 12.6 °F 10.7 °F 1021.9 in North 1.6 mph 3.2 mph 88 % 0.0 in
22:08 13.9 °F 11.1 °F 1022.9 in Calm     83 % 0.0 in
22:13 13.9 °F 11.1 °F 1022.9 in Calm     83 % 0.0 in
22:15 12.5 °F 10.7 °F 1021.9 in Calm   1.6 mph 89 % 0.0 in
22:18 13.9 °F 11.1 °F 1022.9 in Calm     83 % 0.0 in
22:23 14.0 °F 11.2 °F 1022.9 in Calm     83 % 0.0 in
22:25 12.5 °F 10.7 °F 1020.9 in Calm   1.6 mph 89 % 0.0 in
22:28 14.0 °F 11.2 °F 1022.9 in WSW 3.7 mph 3.7 mph 83 % 0.0 in
22:33 14.1 °F 11.3 °F 1022.9 in WSW 1.9 mph 1.9 mph 83 % 0.0 in
22:35 12.1 °F 10.0 °F 1020.9 in West 3.2 mph 4.8 mph 87 % 0.0 in
22:38 14.0 °F 11.2 °F 1022.9 in Calm     83 % 0.0 in
22:43 14.0 °F 11.2 °F 1022.9 in Calm     83 % 0.0 in
22:45 12.1 °F 10.2 °F 1020.9 in West 3.2 mph 4.8 mph 88 % 0.0 in
22:48 14.0 °F 11.2 °F 1022.9 in WSW 2.3 mph 2.3 mph 83 % 0.0 in
22:53 14.0 °F 11.2 °F 1022.9 in Calm     83 % 0.0 in
22:55 12.0 °F 9.9 °F 1020.9 in SW 3.2 mph 6.4 mph 87 % 0.0 in
22:58 14.0 °F 11.3 °F 1022.9 in SE 2.3 mph 2.3 mph 84 % 0.0 in
23:03 13.9 °F 11.2 °F 1022.9 in Calm     84 % 0.0 in
23:05 12.2 °F 10.4 °F 1020.9 in Calm   3.2 mph 89 % 0.0 in
23:08 13.9 °F 11.2 °F 1022.9 in Calm     84 % 0.0 in
23:13 14.0 °F 11.3 °F 1022.9 in Calm     84 % 0.0 in
23:15 12.1 °F 10.3 °F 1020.9 in Calm     89 % 0.0 in
23:18 14.0 °F 11.3 °F 1022.9 in Calm     84 % 0.0 in
23:23 13.8 °F 11.2 °F 1022.9 in SW 1.9 mph   84 % 0.0 in
23:25 12.1 °F 10.3 °F 1020.9 in WSW 1.6 mph 3.2 mph 89 % 0.0 in
23:28 13.8 °F 11.2 °F 1022.9 in WNW 1.9 mph   84 % 0.0 in
23:33 13.8 °F 11.2 °F 1022.9 in Calm     84 % 0.0 in
23:35 12.1 °F 10.3 °F 1020.9 in Calm   1.6 mph 89 % 0.0 in
23:38 13.8 °F 11.2 °F 1022.9 in Calm     84 % 0.0 in
23:43 13.8 °F 11.2 °F 1022.9 in Calm     84 % 0.0 in
23:45 12.2 °F 10.4 °F 1020.9 in Calm     89 % 0.0 in
23:48 13.8 °F 11.2 °F 1022.9 in Calm     84 % 0.0 in
23:53 13.7 °F 11.1 °F 1021.9 in Calm     84 % 0.0 in
23:55 12.1 °F 10.3 °F 1020.9 in WSW 1.6 mph 1.6 mph 89 % 0.0 in
23:58 13.7 °F 11.2 °F 1021.9 in Calm     85 % 0.0 in
Meteo Sesrovires
Elogis d' Weather Underground - 1.5 mb

Guio original per  Jim McMurry - jmcmurry@mwt.net Adaptat per a la plantilla per  Wim van der Kuil - Leuven-Template.eu

Trobareu la nostra informacio del temps tambe a:

Weather Underground

AWEKAS